createdAt,value
2023-04-20T00:00:25.437Z,11.73
2023-04-20T00:02:53.154Z,21.33
2023-04-20T00:05:19.978Z,12.95
2023-04-20T00:07:48.419Z,16.92
2023-04-20T00:10:15.027Z,13.20
2023-04-20T00:12:44.419Z,15.68
2023-04-20T00:15:11.074Z,12.18
2023-04-20T00:17:38.535Z,13.85
2023-04-20T00:20:05.808Z,14.90
2023-04-20T00:22:32.427Z,16.00
2023-04-20T00:24:59.018Z,12.63
2023-04-20T00:27:25.960Z,12.02
2023-04-20T00:29:52.568Z,17.60
2023-04-20T00:32:19.218Z,16.38
2023-04-20T00:34:45.964Z,14.85
2023-04-20T00:37:12.582Z,20.00
2023-04-20T00:39:39.195Z,13.98
2023-04-20T00:42:08.967Z,15.10
2023-04-20T00:44:35.837Z,16.95
2023-04-20T00:47:02.489Z,15.32
2023-04-20T00:49:30.094Z,13.43
2023-04-20T00:51:58.113Z,13.27
2023-04-20T00:54:25.171Z,13.38
2023-04-20T00:56:52.165Z,14.35
2023-04-20T00:59:19.133Z,17.42
2023-04-20T01:01:45.899Z,13.77
2023-04-20T01:04:12.663Z,19.30
2023-04-20T01:06:39.358Z,20.77
2023-04-20T01:09:06.227Z,14.70
2023-04-20T01:11:32.834Z,18.00
2023-04-20T01:13:59.444Z,15.90
2023-04-20T01:16:26.474Z,14.80
2023-04-20T01:18:53.213Z,13.75
2023-04-20T01:21:21.787Z,14.98
2023-04-20T01:23:48.561Z,13.75
2023-04-20T01:26:16.533Z,15.43
2023-04-20T01:28:43.703Z,11.57
2023-04-20T01:31:10.581Z,13.98
2023-04-20T01:33:37.329Z,16.52
2023-04-20T01:36:05.061Z,12.73
2023-04-20T01:38:32.971Z,14.73
2023-04-20T01:40:59.614Z,12.18
2023-04-20T01:43:26.250Z,15.15
2023-04-20T01:45:52.867Z,12.25
2023-04-20T01:48:19.559Z,12.05
2023-04-20T01:50:46.161Z,12.90
2023-04-20T01:53:13.716Z,12.65
2023-04-20T01:55:41.085Z,14.20
2023-04-20T01:58:07.785Z,13.70
2023-04-20T02:00:34.401Z,12.50
2023-04-20T02:03:01.255Z,12.60
2023-04-20T02:05:27.992Z,10.43
2023-04-20T02:07:54.594Z,11.55
2023-04-20T02:10:21.299Z,10.45
2023-04-20T02:12:48.818Z,14.25
2023-04-20T02:15:15.437Z,10.10
2023-04-20T02:17:42.278Z,16.58
2023-04-20T02:20:09.415Z,12.15
2023-04-20T02:22:36.757Z,6.18
2023-04-20T02:25:04.867Z,8.02
2023-04-20T02:27:32.030Z,7.75
2023-04-20T02:29:59.554Z,7.38
2023-04-20T02:32:26.478Z,6.38
2023-04-20T02:34:53.172Z,8.40
2023-04-20T02:37:19.783Z,11.05
2023-04-20T02:39:46.578Z,10.50
2023-04-20T02:42:13.213Z,9.23
2023-04-20T02:44:39.877Z,8.45
2023-04-20T02:47:06.472Z,6.55
2023-04-20T02:49:33.165Z,9.23
2023-04-20T02:51:59.773Z,9.55
2023-04-20T02:54:26.367Z,10.95
2023-04-20T02:56:52.972Z,9.82
2023-04-20T02:59:19.704Z,11.15
2023-04-20T03:01:47.097Z,9.30
2023-04-20T03:04:13.833Z,11.43
2023-04-20T03:06:40.665Z,9.50
2023-04-20T03:09:07.723Z,10.95
2023-04-20T03:11:34.375Z,7.75
2023-04-20T03:14:00.997Z,10.00
2023-04-20T03:16:27.652Z,9.65
2023-04-20T03:18:54.299Z,8.07
2023-04-20T03:21:21.227Z,8.18
2023-04-20T03:23:48.029Z,5.63
2023-04-20T03:26:14.652Z,5.70
2023-04-20T03:28:42.262Z,5.85
2023-04-20T03:31:09.155Z,5.90
2023-04-20T03:33:35.849Z,7.15
2023-04-20T03:36:02.635Z,5.03
2023-04-20T03:38:30.179Z,6.95
2023-04-20T03:40:56.794Z,5.20
2023-04-20T03:43:23.405Z,4.90
2023-04-20T03:45:50.069Z,6.35
2023-04-20T03:48:16.736Z,5.55
2023-04-20T03:50:43.352Z,5.75
2023-04-20T03:53:10.036Z,5.35
2023-04-20T03:55:36.652Z,8.30
2023-04-20T03:58:03.466Z,6.30
2023-04-20T04:00:30.298Z,5.43
2023-04-20T04:02:57.183Z,4.35
2023-04-20T04:05:25.073Z,4.30
2023-04-20T04:07:51.750Z,4.78
2023-04-20T04:10:19.024Z,5.22
2023-04-20T04:12:45.816Z,5.72
2023-04-20T04:15:12.512Z,4.30
2023-04-20T04:17:39.224Z,7.20
2023-04-20T04:20:11.371Z,4.78
2023-04-20T04:22:38.046Z,8.82
2023-04-20T04:25:05.332Z,8.57
2023-04-20T04:27:35.856Z,7.75
2023-04-20T04:30:03.251Z,8.10
2023-04-20T04:32:30.189Z,8.73
2023-04-20T04:34:57.546Z,8.52
2023-04-20T04:37:24.154Z,7.93
2023-04-20T04:39:51.243Z,8.13
2023-04-20T04:42:17.842Z,8.02
2023-04-20T04:44:44.927Z,8.65
2023-04-20T04:47:14.269Z,7.03
2023-04-20T04:49:41.051Z,8.82
2023-04-20T04:52:08.632Z,8.75
2023-04-20T04:54:35.305Z,9.10
2023-04-20T04:57:02.570Z,9.38
2023-04-20T04:59:29.228Z,10.90
2023-04-20T05:01:55.936Z,8.85
2023-04-20T05:04:22.726Z,10.90
2023-04-20T05:06:49.639Z,9.77
2023-04-20T05:09:16.548Z,9.30
2023-04-20T05:11:43.406Z,6.85
2023-04-20T05:14:10.022Z,9.70
2023-04-20T05:16:36.652Z,12.35
2023-04-20T05:19:03.968Z,7.75
2023-04-20T05:21:30.826Z,8.57
2023-04-20T05:23:57.476Z,7.20
2023-04-20T05:26:24.067Z,10.25
2023-04-20T05:28:51.337Z,8.77
2023-04-20T05:31:17.985Z,9.10
2023-04-20T05:33:44.598Z,8.32
2023-04-20T05:36:11.238Z,9.38
2023-04-20T05:38:37.939Z,9.20
2023-04-20T05:41:04.823Z,7.53
2023-04-20T05:43:31.428Z,9.05
2023-04-20T05:45:58.615Z,6.75
2023-04-20T05:48:29.536Z,7.43
2023-04-20T05:50:56.789Z,7.18
2023-04-20T05:53:23.391Z,8.68
2023-04-20T05:55:50.032Z,10.57
2023-04-20T05:58:16.946Z,9.35
2023-04-20T06:00:44.360Z,7.82
2023-04-20T06:03:11.191Z,9.02
2023-04-20T06:05:38.141Z,7.40
2023-04-20T06:08:04.960Z,8.75
2023-04-20T06:10:34.261Z,7.15
2023-04-20T06:13:01.076Z,9.88
2023-04-20T06:15:27.702Z,9.40
2023-04-20T06:17:54.374Z,7.97
2023-04-20T06:20:21.157Z,9.00
2023-04-20T06:22:47.927Z,7.45
2023-04-20T06:25:15.498Z,10.18
2023-04-20T06:27:42.482Z,8.02
2023-04-20T06:30:09.889Z,8.18
2023-04-20T06:32:39.681Z,8.73
2023-04-20T06:35:07.144Z,11.40
2023-04-20T06:37:35.121Z,9.60
2023-04-20T06:40:01.809Z,10.18
2023-04-20T06:42:28.409Z,10.10
2023-04-20T06:44:56.324Z,9.55
2023-04-20T06:47:23.104Z,10.38
2023-04-20T06:49:49.781Z,9.48
2023-04-20T06:52:16.378Z,9.27
2023-04-20T06:54:42.979Z,9.70
2023-04-20T06:57:09.582Z,9.50
2023-04-20T06:59:36.198Z,12.60
2023-04-20T07:02:02.949Z,8.23
2023-04-20T07:04:29.712Z,9.98
2023-04-20T07:06:56.391Z,9.20
2023-04-20T07:09:23.225Z,7.95
2023-04-20T07:11:49.979Z,9.88
2023-04-20T07:14:16.637Z,8.63
2023-04-20T07:16:43.314Z,10.05
2023-04-20T07:19:10.139Z,9.00
2023-04-20T07:21:36.898Z,8.25
2023-04-20T07:24:03.725Z,7.97
2023-04-20T07:26:30.338Z,12.40
2023-04-20T07:28:56.942Z,8.48
2023-04-20T07:31:23.590Z,7.93
2023-04-20T07:33:50.296Z,10.10
2023-04-20T07:36:16.919Z,8.82
2023-04-20T07:38:43.509Z,9.48
2023-04-20T07:41:12.071Z,10.13
2023-04-20T07:43:41.712Z,10.93
2023-04-20T07:46:08.356Z,10.98
2023-04-20T07:48:35.172Z,11.27
2023-04-20T07:51:01.956Z,12.77
2023-04-20T07:53:31.380Z,10.75
2023-04-20T07:55:57.996Z,11.60
2023-04-20T07:58:24.594Z,11.55
2023-04-20T08:00:51.193Z,15.75
2023-04-20T08:03:17.959Z,11.65
2023-04-20T08:05:44.771Z,12.18
2023-04-20T08:08:11.413Z,12.13
2023-04-20T08:10:38.013Z,12.13
2023-04-20T08:13:04.632Z,13.00
2023-04-20T08:15:31.625Z,11.75
2023-04-20T08:17:58.613Z,11.65
2023-04-20T08:20:25.360Z,13.07
2023-04-20T08:22:53.172Z,14.57
2023-04-20T08:25:19.858Z,14.85
2023-04-20T08:27:46.542Z,16.88
2023-04-20T08:30:13.393Z,16.55
2023-04-20T08:32:40.931Z,22.70
2023-04-20T08:35:09.009Z,14.48
2023-04-20T08:37:35.868Z,15.07
2023-04-20T08:40:02.728Z,16.75
2023-04-20T08:42:29.351Z,16.90
2023-04-20T08:44:55.964Z,18.05
2023-04-20T08:47:22.714Z,16.35
2023-04-20T08:49:49.900Z,18.95
2023-04-20T08:52:16.516Z,16.85
2023-04-20T08:54:55.262Z,16.20
2023-04-20T08:57:23.009Z,19.83
2023-04-20T08:59:49.689Z,19.63
2023-04-20T09:02:16.367Z,17.23
2023-04-20T09:04:43.443Z,20.80
2023-04-20T09:07:20.106Z,17.20
2023-04-20T09:09:56.374Z,20.73
2023-04-20T09:12:24.540Z,17.42
2023-04-20T09:14:51.749Z,20.80
2023-04-20T09:17:30.289Z,21.50
2023-04-20T09:19:56.947Z,19.45
2023-04-20T09:22:33.215Z,20.67
2023-04-20T09:25:00.061Z,21.20
2023-04-20T09:27:26.904Z,22.60
2023-04-20T09:29:57.870Z,20.75
2023-04-20T09:32:24.904Z,20.88
2023-04-20T09:34:51.586Z,22.23
2023-04-20T09:37:18.175Z,20.08
2023-04-20T09:39:45.229Z,21.83
2023-04-20T09:42:12.798Z,19.15
2023-04-20T09:44:39.847Z,20.83
2023-04-20T09:47:08.738Z,19.70
2023-04-20T09:49:35.605Z,23.10
2023-04-20T09:52:03.354Z,19.40
2023-04-20T09:54:30.431Z,21.35
2023-04-20T09:56:59.151Z,20.85
2023-04-20T09:59:25.844Z,18.42
2023-04-20T10:01:52.452Z,22.40
2023-04-20T10:04:19.457Z,19.00
2023-04-20T10:06:57.802Z,20.02
2023-04-20T10:09:28.359Z,22.20
2023-04-20T10:12:05.572Z,21.75
2023-04-20T10:14:32.190Z,20.73
2023-04-20T10:17:00.493Z,22.10
2023-04-20T10:19:56.698Z,18.95
2023-04-20T10:22:30.722Z,16.80
2023-04-20T10:24:57.330Z,19.05
2023-04-20T10:27:24.063Z,18.50
2023-04-20T10:29:50.655Z,18.27
2023-04-20T10:32:27.433Z,18.33
2023-04-20T10:35:07.974Z,18.40
2023-04-20T10:37:34.723Z,19.30
2023-04-20T10:40:01.672Z,16.15
2023-04-20T10:42:29.605Z,15.88
2023-04-20T10:44:56.393Z,17.55
2023-04-20T10:47:31.473Z,16.98
2023-04-20T10:50:14.319Z,15.88
2023-04-20T10:52:42.138Z,17.10
2023-04-20T10:55:22.733Z,20.02
2023-04-20T10:57:49.919Z,16.42
2023-04-20T11:00:18.051Z,20.15
2023-04-20T11:02:54.904Z,19.48
2023-04-20T11:05:22.367Z,20.23
2023-04-20T11:07:56.069Z,20.02
2023-04-20T11:10:24.499Z,18.93
2023-04-20T11:12:51.937Z,15.00
2023-04-20T11:15:18.668Z,15.93
2023-04-20T11:17:46.775Z,13.07
2023-04-20T11:20:14.996Z,11.32
2023-04-20T11:22:42.027Z,11.45
2023-04-20T11:25:10.701Z,12.07
2023-04-20T11:27:37.741Z,10.65
2023-04-20T11:30:05.527Z,10.48
2023-04-20T11:32:33.176Z,10.15
2023-04-20T11:35:06.404Z,12.65
2023-04-20T11:37:34.429Z,10.15
2023-04-20T11:40:06.680Z,8.27
2023-04-20T11:42:33.304Z,11.70
2023-04-20T11:45:00.092Z,10.45
2023-04-20T11:47:27.384Z,10.45
2023-04-20T11:49:54.046Z,11.15
2023-04-20T11:52:20.791Z,11.25
2023-04-20T11:54:47.408Z,16.40
2023-04-20T11:57:14.009Z,15.65
2023-04-20T11:59:42.893Z,11.40
2023-04-20T12:02:09.785Z,20.08
2023-04-20T12:04:36.726Z,10.27
2023-04-20T12:07:03.531Z,10.80
2023-04-20T12:09:30.644Z,11.07
2023-04-20T12:11:57.675Z,8.85
2023-04-20T12:14:24.287Z,7.65
2023-04-20T12:16:50.956Z,8.63
2023-04-20T12:19:17.762Z,7.68
2023-04-20T12:21:46.618Z,9.18
2023-04-20T12:24:13.412Z,14.00
2023-04-20T12:26:40.043Z,13.68
2023-04-20T12:29:07.518Z,8.63
2023-04-20T12:31:35.450Z,8.27
2023-04-20T12:34:02.339Z,7.18
2023-04-20T12:36:29.095Z,10.43
2023-04-20T12:38:56.063Z,8.73
2023-04-20T12:41:23.464Z,8.23
2023-04-20T12:43:50.785Z,5.93
2023-04-20T12:46:17.538Z,7.15
2023-04-20T12:48:47.336Z,7.53
2023-04-20T12:51:15.038Z,8.93
2023-04-20T12:53:41.875Z,8.35
2023-04-20T12:56:08.562Z,8.23
2023-04-20T12:58:35.163Z,8.13
2023-04-20T13:01:01.892Z,9.98
2023-04-20T13:03:28.845Z,7.55
2023-04-20T13:05:55.574Z,8.52
2023-04-20T13:08:22.241Z,8.10
2023-04-20T13:10:48.906Z,8.02
2023-04-20T13:13:15.561Z,7.80
2023-04-20T13:15:42.190Z,13.57
2023-04-20T13:18:09.820Z,7.30
2023-04-20T13:20:36.666Z,8.30
2023-04-20T13:23:03.926Z,7.53
2023-04-20T13:25:32.656Z,8.65
2023-04-20T13:27:59.645Z,8.18
2023-04-20T13:30:26.330Z,6.85
2023-04-20T13:32:53.002Z,7.38
2023-04-20T13:35:19.702Z,6.93
2023-04-20T13:37:46.296Z,9.98
2023-04-20T13:40:13.132Z,7.80
2023-04-20T13:42:39.765Z,10.82
2023-04-20T13:45:07.007Z,9.88
2023-04-20T13:47:33.699Z,7.45
2023-04-20T13:50:02.326Z,8.65
2023-04-20T13:52:28.967Z,10.40
2023-04-20T13:54:55.579Z,8.98
2023-04-20T13:57:22.193Z,7.57
2023-04-20T13:59:48.804Z,7.35
2023-04-20T14:02:15.460Z,11.32
2023-04-20T14:04:42.248Z,11.30
2023-04-20T14:07:09.076Z,7.20
2023-04-20T14:09:35.838Z,10.00
2023-04-20T14:12:03.255Z,8.13
2023-04-20T14:14:29.858Z,7.10
2023-04-20T14:16:56.461Z,11.48
2023-04-20T14:19:23.104Z,9.38
2023-04-20T14:21:50.120Z,9.15
2023-04-20T14:24:17.041Z,9.50
2023-04-20T14:26:43.940Z,8.05
2023-04-20T14:29:10.637Z,10.98
2023-04-20T14:31:37.395Z,8.30
2023-04-20T14:34:04.053Z,8.02
2023-04-20T14:36:30.843Z,9.23
2023-04-20T14:38:57.509Z,12.55
2023-04-20T14:41:24.127Z,9.60
2023-04-20T14:43:51.276Z,8.98
2023-04-20T14:46:18.695Z,9.23
2023-04-20T14:48:46.223Z,11.02
2023-04-20T14:51:13.526Z,9.70
2023-04-20T14:53:40.191Z,8.85
2023-04-20T14:56:07.752Z,15.88
2023-04-20T14:58:35.936Z,10.15
2023-04-20T15:01:03.074Z,8.88
2023-04-20T15:03:29.922Z,10.43
2023-04-20T15:06:00.831Z,16.02
2023-04-20T15:08:27.660Z,9.52
2023-04-20T15:10:56.661Z,13.02
2023-04-20T15:13:24.021Z,9.82
2023-04-20T15:15:52.649Z,11.98
2023-04-20T15:18:20.940Z,8.38
2023-04-20T15:20:49.460Z,8.75
2023-04-20T15:23:16.319Z,9.98
2023-04-20T15:25:42.918Z,10.77
2023-04-20T15:28:09.616Z,10.43
2023-04-20T15:30:36.242Z,7.78
2023-04-20T15:33:04.461Z,11.30
2023-04-20T15:35:31.937Z,10.55
2023-04-20T15:37:58.559Z,11.88
2023-04-20T15:40:27.156Z,9.15
2023-04-20T15:42:55.600Z,14.13
2023-04-20T15:45:22.931Z,9.43
2023-04-20T15:47:49.712Z,10.68
2023-04-20T15:50:16.572Z,9.77
2023-04-20T15:52:43.711Z,13.05
2023-04-20T15:55:10.515Z,9.82
2023-04-20T15:57:37.135Z,12.27
2023-04-20T16:00:04.422Z,11.90
2023-04-20T16:02:31.150Z,10.85
2023-04-20T16:04:58.175Z,14.15
2023-04-20T16:07:24.863Z,14.52
2023-04-20T16:09:51.470Z,12.40
2023-04-20T16:12:18.083Z,12.55
2023-04-20T16:14:44.711Z,11.23
2023-04-20T16:17:11.319Z,15.65
2023-04-20T16:19:38.071Z,13.15
2023-04-20T16:22:04.669Z,11.38
2023-04-20T16:24:31.311Z,14.13
2023-04-20T16:27:00.986Z,13.02
2023-04-20T16:29:28.331Z,14.27
2023-04-20T16:31:55.009Z,13.57
2023-04-20T16:34:21.746Z,16.45
2023-04-20T16:36:50.157Z,13.75
2023-04-20T16:39:17.732Z,14.20
2023-04-20T16:41:44.501Z,14.20
2023-04-20T16:44:13.645Z,26.85
2023-04-20T16:46:41.645Z,16.42
2023-04-20T16:49:09.074Z,14.18
2023-04-20T16:51:35.775Z,13.00
2023-04-20T16:54:02.462Z,16.15
2023-04-20T16:56:29.073Z,14.00
2023-04-20T16:58:55.734Z,18.63
2023-04-20T17:01:22.471Z,16.65
2023-04-20T17:03:49.386Z,15.07
2023-04-20T17:06:16.125Z,17.90
2023-04-20T17:08:42.730Z,17.67
2023-04-20T17:11:09.356Z,21.88
2023-04-20T17:13:36.373Z,19.73
2023-04-20T17:16:03.666Z,31.63
2023-04-20T17:18:35.155Z,28.50
2023-04-20T17:21:02.080Z,30.80
2023-04-20T17:23:28.708Z,23.40
2023-04-20T17:25:55.535Z,17.33
2023-04-20T17:28:22.189Z,24.63
2023-04-20T17:30:48.793Z,24.17
2023-04-20T17:33:15.740Z,18.65
2023-04-20T17:35:42.997Z,23.05
2023-04-20T17:38:09.594Z,25.63
2023-04-20T17:40:36.339Z,21.40
2023-04-20T17:43:02.963Z,29.85
2023-04-20T17:45:29.689Z,25.40
2023-04-20T17:47:56.464Z,22.13
2023-04-20T17:50:26.155Z,31.13
2023-04-20T17:52:58.466Z,27.25
2023-04-20T17:55:25.398Z,24.88
2023-04-20T17:57:52.153Z,24.73
2023-04-20T18:00:20.453Z,27.95
2023-04-20T18:02:47.415Z,33.80
2023-04-20T18:05:17.154Z,29.05
2023-04-20T18:07:44.487Z,28.17
2023-04-20T18:10:13.413Z,27.30
2023-04-20T18:12:40.074Z,27.17
2023-04-20T18:15:08.413Z,29.60
2023-04-20T18:17:35.314Z,29.08
2023-04-20T18:20:02.013Z,31.88
2023-04-20T18:22:28.633Z,30.50
2023-04-20T18:24:55.300Z,33.30
2023-04-20T18:27:21.928Z,30.40
2023-04-20T18:29:49.752Z,30.77
2023-04-20T18:32:17.954Z,33.10
2023-04-20T18:34:44.622Z,34.88
2023-04-20T18:37:12.473Z,31.83
2023-04-20T18:39:39.329Z,37.95
2023-04-20T18:42:06.048Z,36.95
2023-04-20T18:44:32.757Z,35.55
2023-04-20T18:46:59.679Z,33.05
2023-04-20T18:49:26.418Z,36.63
2023-04-20T18:51:53.143Z,33.35
2023-04-20T18:54:19.979Z,40.03
2023-04-20T18:56:46.757Z,37.60
2023-04-20T18:59:13.402Z,39.50
2023-04-20T19:01:40.685Z,34.50
2023-04-20T19:04:11.159Z,40.15
2023-04-20T19:06:37.960Z,40.55
2023-04-20T19:09:06.655Z,38.70
2023-04-20T19:11:34.046Z,41.80
2023-04-20T19:14:00.866Z,40.35
2023-04-20T19:16:32.950Z,41.00
2023-04-20T19:18:59.722Z,44.17
2023-04-20T19:21:26.953Z,39.85
2023-04-20T19:23:53.608Z,40.45
2023-04-20T19:26:20.228Z,36.22
2023-04-20T19:28:46.831Z,38.38
2023-04-20T19:31:13.460Z,39.20
2023-04-20T19:33:40.471Z,39.80
2023-04-20T19:36:08.095Z,41.88
2023-04-20T19:38:35.124Z,41.83
2023-04-20T19:41:01.979Z,45.53
2023-04-20T19:43:28.649Z,39.20
2023-04-20T19:45:55.798Z,37.03
2023-04-20T19:48:22.418Z,47.08
2023-04-20T19:50:50.486Z,38.55
2023-04-20T19:53:17.088Z,45.40
2023-04-20T19:55:43.680Z,47.78
2023-04-20T19:58:10.804Z,42.22
2023-04-20T20:00:37.789Z,47.50
2023-04-20T20:03:04.756Z,44.80
2023-04-20T20:05:31.398Z,47.97
2023-04-20T20:07:58.026Z,44.80
2023-04-20T20:10:24.666Z,45.33
2023-04-20T20:12:51.277Z,45.10
2023-04-20T20:15:17.919Z,48.22
2023-04-20T20:17:46.472Z,45.58
2023-04-20T20:20:15.343Z,48.90
2023-04-20T20:22:48.131Z,52.20
2023-04-20T20:25:15.715Z,47.45
2023-04-20T20:27:42.329Z,53.10
2023-04-20T20:30:09.654Z,50.97
2023-04-20T20:32:36.273Z,46.38
2023-04-20T20:35:04.574Z,49.00
2023-04-20T20:37:34.696Z,48.00
2023-04-20T20:40:07.245Z,50.80
2023-04-20T20:42:34.061Z,50.47
2023-04-20T20:45:01.040Z,46.03
2023-04-20T20:47:27.716Z,50.03
2023-04-20T20:49:54.320Z,49.92
2023-04-20T20:52:21.060Z,50.83
2023-04-20T20:54:47.789Z,52.05
2023-04-20T20:57:14.389Z,46.38
2023-04-20T20:59:40.980Z,50.85
2023-04-20T21:02:07.686Z,48.15
2023-04-20T21:04:34.309Z,51.67
2023-04-20T21:07:00.930Z,48.25
2023-04-20T21:09:27.678Z,51.42
2023-04-20T21:11:56.447Z,48.85
2023-04-20T21:14:23.100Z,49.72
2023-04-20T21:16:49.767Z,52.75
2023-04-20T21:19:16.872Z,47.75
2023-04-20T21:21:43.636Z,51.78
2023-04-20T21:24:10.323Z,51.88
2023-04-20T21:26:36.975Z,47.10
2023-04-20T21:29:03.721Z,45.45
2023-04-20T21:31:30.921Z,50.38
2023-04-20T21:33:58.075Z,55.33
2023-04-20T21:36:24.648Z,53.13
2023-04-20T21:38:51.244Z,51.72
2023-04-20T21:41:17.836Z,46.10
2023-04-20T21:43:44.428Z,50.40
2023-04-20T21:46:14.968Z,53.28
2023-04-20T21:48:41.940Z,54.55
2023-04-20T21:51:08.610Z,51.20
2023-04-20T21:53:35.220Z,47.03
2023-04-20T21:56:01.799Z,49.10
2023-04-20T21:58:28.434Z,50.97
2023-04-20T22:00:55.101Z,51.20
2023-04-20T22:03:22.033Z,47.15
2023-04-20T22:05:48.789Z,48.92
2023-04-20T22:08:15.415Z,49.15
2023-04-20T22:10:42.035Z,49.97
2023-04-20T22:13:08.660Z,52.95
2023-04-20T22:15:36.094Z,45.60
2023-04-20T22:18:04.050Z,48.25
2023-04-20T22:20:31.448Z,56.35
2023-04-20T22:22:58.156Z,49.10
2023-04-20T22:25:24.798Z,53.97
2023-04-20T22:27:51.467Z,48.75
2023-04-20T22:30:18.104Z,48.63
2023-04-20T22:32:44.792Z,53.97
2023-04-20T22:35:11.452Z,49.05
2023-04-20T22:37:38.061Z,45.35
2023-04-20T22:40:05.963Z,48.25
2023-04-20T22:42:32.666Z,46.47
2023-04-20T22:45:00.384Z,49.28
2023-04-20T22:47:27.154Z,46.42
2023-04-20T22:49:54.586Z,44.58
2023-04-20T22:52:21.222Z,46.45
2023-04-20T22:54:48.412Z,48.53
2023-04-20T22:57:15.690Z,44.85
2023-04-20T22:59:42.303Z,47.15
2023-04-20T23:02:08.966Z,51.17
2023-04-20T23:04:37.608Z,45.58
2023-04-20T23:07:05.033Z,45.03
2023-04-20T23:09:32.120Z,44.50
2023-04-20T23:11:58.857Z,41.72
2023-04-20T23:14:25.845Z,45.00
2023-04-20T23:16:52.509Z,48.50
2023-04-20T23:19:19.286Z,47.17
2023-04-20T23:21:46.124Z,50.03
2023-04-20T23:24:12.720Z,48.28
2023-04-20T23:26:39.326Z,43.30
2023-04-20T23:29:05.946Z,44.30
2023-04-20T23:31:32.558Z,48.83
2023-04-20T23:33:59.209Z,46.92
2023-04-20T23:36:26.297Z,51.30
2023-04-20T23:38:52.980Z,53.03
2023-04-20T23:41:19.591Z,44.25
2023-04-20T23:43:46.199Z,43.63
2023-04-20T23:46:14.405Z,49.22
2023-04-20T23:48:41.124Z,44.38
2023-04-20T23:51:07.716Z,47.30
2023-04-20T23:53:38.933Z,50.80
2023-04-20T23:56:06.022Z,45.78
2023-04-20T23:58:32.632Z,45.03
